sensor_id;sensor_type;location;lat;lon;timestamp;temperature;humidity
19085;DHT22;9675;51.538;6.728;2023-07-13T00:02:16;23.60;99.90
19085;DHT22;9675;51.538;6.728;2023-07-13T00:04:43;23.60;99.90
19085;DHT22;9675;51.538;6.728;2023-07-13T00:07:11;23.50;99.90
19085;DHT22;9675;51.538;6.728;2023-07-13T00:09:39;23.50;99.90
19085;DHT22;9675;51.538;6.728;2023-07-13T00:12:22;23.40;99.90
19085;DHT22;9675;51.538;6.728;2023-07-13T00:14:51;23.30;99.90
19085;DHT22;9675;51.538;6.728;2023-07-13T00:17:18;23.30;99.90
19085;DHT22;9675;51.538;6.728;2023-07-13T00:19:45;23.20;99.90
19085;DHT22;9675;51.538;6.728;2023-07-13T00:22:14;23.20;99.90
19085;DHT22;9675;51.538;6.728;2023-07-13T00:24:41;23.10;99.90
19085;DHT22;9675;51.538;6.728;2023-07-13T00:27:08;23.10;99.90
19085;DHT22;9675;51.538;6.728;2023-07-13T00:29:36;22.90;99.90
19085;DHT22;9675;51.538;6.728;2023-07-13T00:32:05;22.90;99.90
19085;DHT22;9675;51.538;6.728;2023-07-13T00:34:35;22.90;99.90
19085;DHT22;9675;51.538;6.728;2023-07-13T00:37:02;22.90;99.90
19085;DHT22;9675;51.538;6.728;2023-07-13T00:39:33;22.80;99.90
19085;DHT22;9675;51.538;6.728;2023-07-13T00:42:02;22.70;99.90
19085;DHT22;9675;51.538;6.728;2023-07-13T00:44:30;22.70;99.90
19085;DHT22;9675;51.538;6.728;2023-07-13T00:46:57;22.60;99.90
19085;DHT22;9675;51.538;6.728;2023-07-13T00:49:27;22.60;99.90
19085;DHT22;9675;51.538;6.728;2023-07-13T00:51:59;22.50;99.90
19085;DHT22;9675;51.538;6.728;2023-07-13T00:54:34;22.50;99.90
19085;DHT22;9675;51.538;6.728;2023-07-13T00:57:05;22.50;99.90
19085;DHT22;9675;51.538;6.728;2023-07-13T00:59:37;22.50;99.90
19085;DHT22;9675;51.538;6.728;2023-07-13T01:02:09;22.50;99.90
19085;DHT22;9675;51.538;6.728;2023-07-13T01:04:37;22.40;99.90
19085;DHT22;9675;51.538;6.728;2023-07-13T01:07:05;22.40;99.90
19085;DHT22;9675;51.538;6.728;2023-07-13T01:09:34;22.40;99.90
19085;DHT22;9675;51.538;6.728;2023-07-13T01:12:02;22.40;99.90
19085;DHT22;9675;51.538;6.728;2023-07-13T01:14:29;22.40;99.90
19085;DHT22;9675;51.538;6.728;2023-07-13T01:16:57;22.40;99.90
19085;DHT22;9675;51.538;6.728;2023-07-13T01:19:31;22.30;99.90
19085;DHT22;9675;51.538;6.728;2023-07-13T01:22:05;22.20;99.90
19085;DHT22;9675;51.538;6.728;2023-07-13T01:24:38;22.10;99.90
19085;DHT22;9675;51.538;6.728;2023-07-13T01:27:07;22.00;99.90
19085;DHT22;9675;51.538;6.728;2023-07-13T01:29:37;22.00;99.90
19085;DHT22;9675;51.538;6.728;2023-07-13T01:32:08;21.90;99.90
19085;DHT22;9675;51.538;6.728;2023-07-13T01:34:36;21.90;99.90
19085;DHT22;9675;51.538;6.728;2023-07-13T01:37:05;21.90;99.90
19085;DHT22;9675;51.538;6.728;2023-07-13T01:39:33;21.90;99.90
19085;DHT22;9675;51.538;6.728;2023-07-13T01:42:00;21.90;99.90
19085;DHT22;9675;51.538;6.728;2023-07-13T01:44:27;21.90;99.90
19085;DHT22;9675;51.538;6.728;2023-07-13T01:46:54;21.90;99.90
19085;DHT22;9675;51.538;6.728;2023-07-13T01:49:21;21.90;99.90
19085;DHT22;9675;51.538;6.728;2023-07-13T01:51:48;21.90;99.90
19085;DHT22;9675;51.538;6.728;2023-07-13T01:54:16;21.80;99.90
19085;DHT22;9675;51.538;6.728;2023-07-13T01:56:43;21.80;99.90
19085;DHT22;9675;51.538;6.728;2023-07-13T01:59:10;21.70;99.90
19085;DHT22;9675;51.538;6.728;2023-07-13T02:01:37;21.70;99.90
19085;DHT22;9675;51.538;6.728;2023-07-13T02:04:05;21.70;99.90
19085;DHT22;9675;51.538;6.728;2023-07-13T02:06:32;21.60;99.90
19085;DHT22;9675;51.538;6.728;2023-07-13T02:08:59;21.60;99.90
19085;DHT22;9675;51.538;6.728;2023-07-13T02:11:28;21.60;99.90
19085;DHT22;9675;51.538;6.728;2023-07-13T02:13:58;21.60;99.90
19085;DHT22;9675;51.538;6.728;2023-07-13T02:16:25;21.60;99.90
19085;DHT22;9675;51.538;6.728;2023-07-13T02:18:52;21.50;99.90
19085;DHT22;9675;51.538;6.728;2023-07-13T02:21:21;21.50;99.90
19085;DHT22;9675;51.538;6.728;2023-07-13T02:23:48;21.40;99.90
19085;DHT22;9675;51.538;6.728;2023-07-13T02:26:16;21.40;99.90
19085;DHT22;9675;51.538;6.728;2023-07-13T02:28:44;21.40;99.90
19085;DHT22;9675;51.538;6.728;2023-07-13T02:31:13;21.40;99.90
19085;DHT22;9675;51.538;6.728;2023-07-13T02:33:42;21.40;99.90
19085;DHT22;9675;51.538;6.728;2023-07-13T02:36:09;21.40;99.90
19085;DHT22;9675;51.538;6.728;2023-07-13T02:38:37;21.30;99.90
19085;DHT22;9675;51.538;6.728;2023-07-13T02:41:04;21.30;99.90
19085;DHT22;9675;51.538;6.728;2023-07-13T02:43:32;21.20;99.90
19085;DHT22;9675;51.538;6.728;2023-07-13T02:46:01;21.20;99.90
19085;DHT22;9675;51.538;6.728;2023-07-13T02:48:32;21.20;99.90
19085;DHT22;9675;51.538;6.728;2023-07-13T02:50:59;21.10;99.90
19085;DHT22;9675;51.538;6.728;2023-07-13T02:53:26;21.00;99.90
19085;DHT22;9675;51.538;6.728;2023-07-13T02:55:53;20.90;99.90
19085;DHT22;9675;51.538;6.728;2023-07-13T02:58:20;20.90;99.90
19085;DHT22;9675;51.538;6.728;2023-07-13T03:00:48;20.80;99.90
19085;DHT22;9675;51.538;6.728;2023-07-13T03:03:17;20.80;99.90
19085;DHT22;9675;51.538;6.728;2023-07-13T03:05:44;20.80;99.90
19085;DHT22;9675;51.538;6.728;2023-07-13T03:08:15;20.80;99.90
19085;DHT22;9675;51.538;6.728;2023-07-13T03:10:43;20.90;99.90
19085;DHT22;9675;51.538;6.728;2023-07-13T03:13:10;20.80;99.90
19085;DHT22;9675;51.538;6.728;2023-07-13T03:15:37;20.90;99.90
19085;DHT22;9675;51.538;6.728;2023-07-13T03:18:04;20.80;99.90
19085;DHT22;9675;51.538;6.728;2023-07-13T03:20:34;20.70;99.90
19085;DHT22;9675;51.538;6.728;2023-07-13T03:23:01;20.60;99.90
19085;DHT22;9675;51.538;6.728;2023-07-13T03:25:28;20.60;99.90
19085;DHT22;9675;51.538;6.728;2023-07-13T03:27:55;20.50;99.90
19085;DHT22;9675;51.538;6.728;2023-07-13T03:30:22;20.40;99.90
19085;DHT22;9675;51.538;6.728;2023-07-13T03:32:49;20.30;99.90
19085;DHT22;9675;51.538;6.728;2023-07-13T03:35:17;20.30;99.90
19085;DHT22;9675;51.538;6.728;2023-07-13T03:37:45;20.20;99.90
19085;DHT22;9675;51.538;6.728;2023-07-13T03:40:13;20.20;99.90
19085;DHT22;9675;51.538;6.728;2023-07-13T03:42:40;20.10;99.90
19085;DHT22;9675;51.538;6.728;2023-07-13T03:45:08;20.10;99.90
19085;DHT22;9675;51.538;6.728;2023-07-13T03:47:35;20.10;99.90
19085;DHT22;9675;51.538;6.728;2023-07-13T03:50:03;20.10;99.90
19085;DHT22;9675;51.538;6.728;2023-07-13T03:52:30;20.00;99.90
19085;DHT22;9675;51.538;6.728;2023-07-13T03:54:58;20.00;99.90
19085;DHT22;9675;51.538;6.728;2023-07-13T03:57:26;20.10;99.90
19085;DHT22;9675;51.538;6.728;2023-07-13T03:59:53;20.00;99.90
19085;DHT22;9675;51.538;6.728;2023-07-13T04:02:20;20.00;99.90
19085;DHT22;9675;51.538;6.728;2023-07-13T04:04:47;20.00;99.90
19085;DHT22;9675;51.538;6.728;2023-07-13T04:07:14;20.00;99.90
19085;DHT22;9675;51.538;6.728;2023-07-13T04:09:41;20.10;99.90
19085;DHT22;9675;51.538;6.728;2023-07-13T04:12:10;20.00;99.90
19085;DHT22;9675;51.538;6.728;2023-07-13T04:14:37;20.00;99.90
19085;DHT22;9675;51.538;6.728;2023-07-13T04:17:04;20.10;99.90
19085;DHT22;9675;51.538;6.728;2023-07-13T04:19:32;20.10;99.90
19085;DHT22;9675;51.538;6.728;2023-07-13T04:21:59;20.20;99.90
19085;DHT22;9675;51.538;6.728;2023-07-13T04:24:26;20.10;99.90
19085;DHT22;9675;51.538;6.728;2023-07-13T04:26:53;20.00;99.90
19085;DHT22;9675;51.538;6.728;2023-07-13T04:29:21;19.90;99.90
19085;DHT22;9675;51.538;6.728;2023-07-13T04:31:48;19.90;99.90
19085;DHT22;9675;51.538;6.728;2023-07-13T04:34:15;19.80;99.90
19085;DHT22;9675;51.538;6.728;2023-07-13T04:36:42;19.70;99.90
19085;DHT22;9675;51.538;6.728;2023-07-13T04:39:09;19.70;99.90
19085;DHT22;9675;51.538;6.728;2023-07-13T04:41:36;19.70;99.90
19085;DHT22;9675;51.538;6.728;2023-07-13T04:44:03;19.70;99.90
19085;DHT22;9675;51.538;6.728;2023-07-13T04:50:19;19.70;99.90
19085;DHT22;9675;51.538;6.728;2023-07-13T04:56:29;19.60;99.90
19085;DHT22;9675;51.538;6.728;2023-07-13T04:58:58;19.60;99.90
19085;DHT22;9675;51.538;6.728;2023-07-13T05:01:24;19.60;99.90
19085;DHT22;9675;51.538;6.728;2023-07-13T05:03:52;19.50;99.90
19085;DHT22;9675;51.538;6.728;2023-07-13T05:06:22;19.50;99.90
19085;DHT22;9675;51.538;6.728;2023-07-13T05:08:49;19.60;99.90
19085;DHT22;9675;51.538;6.728;2023-07-13T05:11:18;19.60;99.90
19085;DHT22;9675;51.538;6.728;2023-07-13T05:13:45;19.60;99.90
19085;DHT22;9675;51.538;6.728;2023-07-13T05:16:12;19.60;99.90
19085;DHT22;9675;51.538;6.728;2023-07-13T05:18:39;19.70;99.90
19085;DHT22;9675;51.538;6.728;2023-07-13T05:21:07;19.60;99.90
19085;DHT22;9675;51.538;6.728;2023-07-13T05:23:37;19.60;99.90
19085;DHT22;9675;51.538;6.728;2023-07-13T05:26:07;19.70;99.90
19085;DHT22;9675;51.538;6.728;2023-07-13T05:28:34;19.70;99.90
19085;DHT22;9675;51.538;6.728;2023-07-13T05:31:01;19.70;99.90
19085;DHT22;9675;51.538;6.728;2023-07-13T05:33:28;19.70;99.90
19085;DHT22;9675;51.538;6.728;2023-07-13T05:35:55;19.70;99.90
19085;DHT22;9675;51.538;6.728;2023-07-13T05:38:23;19.70;99.90
19085;DHT22;9675;51.538;6.728;2023-07-13T05:40:55;19.60;99.90
19085;DHT22;9675;51.538;6.728;2023-07-13T05:43:23;19.60;99.90
19085;DHT22;9675;51.538;6.728;2023-07-13T05:45:52;19.50;99.90
19085;DHT22;9675;51.538;6.728;2023-07-13T05:48:20;19.50;99.90
19085;DHT22;9675;51.538;6.728;2023-07-13T05:50:47;19.60;99.90
19085;DHT22;9675;51.538;6.728;2023-07-13T05:53:15;19.60;99.90
19085;DHT22;9675;51.538;6.728;2023-07-13T05:55:42;19.60;99.90
19085;DHT22;9675;51.538;6.728;2023-07-13T05:58:11;19.50;99.90
19085;DHT22;9675;51.538;6.728;2023-07-13T06:00:38;19.60;99.90
19085;DHT22;9675;51.538;6.728;2023-07-13T06:03:06;19.60;99.90
19085;DHT22;9675;51.538;6.728;2023-07-13T06:05:34;19.50;99.90
19085;DHT22;9675;51.538;6.728;2023-07-13T06:08:02;19.50;99.90
19085;DHT22;9675;51.538;6.728;2023-07-13T06:10:32;19.50;99.90
19085;DHT22;9675;51.538;6.728;2023-07-13T06:12:59;19.50;99.90
19085;DHT22;9675;51.538;6.728;2023-07-13T06:15:28;19.60;99.90
19085;DHT22;9675;51.538;6.728;2023-07-13T06:17:55;19.60;99.90
19085;DHT22;9675;51.538;6.728;2023-07-13T06:20:22;19.70;99.90
19085;DHT22;9675;51.538;6.728;2023-07-13T06:22:49;19.70;99.90
19085;DHT22;9675;51.538;6.728;2023-07-13T06:25:16;19.70;99.90
19085;DHT22;9675;51.538;6.728;2023-07-13T06:27:44;19.70;99.90
19085;DHT22;9675;51.538;6.728;2023-07-13T06:30:12;19.70;99.90
19085;DHT22;9675;51.538;6.728;2023-07-13T06:32:40;19.70;99.90
19085;DHT22;9675;51.538;6.728;2023-07-13T06:35:07;19.70;99.90
19085;DHT22;9675;51.538;6.728;2023-07-13T06:37:38;19.70;99.90
19085;DHT22;9675;51.538;6.728;2023-07-13T06:40:06;19.70;99.90
19085;DHT22;9675;51.538;6.728;2023-07-13T06:42:34;19.80;99.90
19085;DHT22;9675;51.538;6.728;2023-07-13T06:45:01;19.80;99.90
19085;DHT22;9675;51.538;6.728;2023-07-13T06:47:28;19.80;99.90
19085;DHT22;9675;51.538;6.728;2023-07-13T06:49:57;19.80;99.90
19085;DHT22;9675;51.538;6.728;2023-07-13T06:52:24;19.80;99.90
19085;DHT22;9675;51.538;6.728;2023-07-13T06:54:51;19.80;99.90
19085;DHT22;9675;51.538;6.728;2023-07-13T06:57:18;19.80;99.90
19085;DHT22;9675;51.538;6.728;2023-07-13T06:59:45;19.80;99.90
19085;DHT22;9675;51.538;6.728;2023-07-13T07:02:12;19.90;99.90
19085;DHT22;9675;51.538;6.728;2023-07-13T07:04:39;19.90;99.90
19085;DHT22;9675;51.538;6.728;2023-07-13T07:07:08;19.90;99.90
19085;DHT22;9675;51.538;6.728;2023-07-13T07:09:35;19.90;99.90
19085;DHT22;9675;51.538;6.728;2023-07-13T07:12:02;19.90;99.90
19085;DHT22;9675;51.538;6.728;2023-07-13T07:14:30;19.90;99.90
19085;DHT22;9675;51.538;6.728;2023-07-13T07:16:59;19.90;99.90
19085;DHT22;9675;51.538;6.728;2023-07-13T07:19:27;19.90;99.90
19085;DHT22;9675;51.538;6.728;2023-07-13T07:21:55;20.00;99.90
19085;DHT22;9675;51.538;6.728;2023-07-13T07:24:24;20.00;99.90
19085;DHT22;9675;51.538;6.728;2023-07-13T07:26:51;20.00;99.90
19085;DHT22;9675;51.538;6.728;2023-07-13T07:29:18;20.00;99.90
19085;DHT22;9675;51.538;6.728;2023-07-13T07:31:45;20.00;99.90
19085;DHT22;9675;51.538;6.728;2023-07-13T07:34:12;20.10;99.90
19085;DHT22;9675;51.538;6.728;2023-07-13T07:36:39;20.10;99.90
19085;DHT22;9675;51.538;6.728;2023-07-13T07:39:06;20.10;99.90
19085;DHT22;9675;51.538;6.728;2023-07-13T07:41:35;20.10;99.90
19085;DHT22;9675;51.538;6.728;2023-07-13T07:44:02;20.10;99.90
19085;DHT22;9675;51.538;6.728;2023-07-13T07:46:30;20.10;99.90
19085;DHT22;9675;51.538;6.728;2023-07-13T07:48:57;20.10;99.90
19085;DHT22;9675;51.538;6.728;2023-07-13T07:51:24;20.10;99.90
19085;DHT22;9675;51.538;6.728;2023-07-13T07:53:51;20.10;99.90
19085;DHT22;9675;51.538;6.728;2023-07-13T07:56:18;20.10;99.90
19085;DHT22;9675;51.538;6.728;2023-07-13T07:58:47;20.20;99.90
19085;DHT22;9675;51.538;6.728;2023-07-13T08:01:14;20.20;99.90
19085;DHT22;9675;51.538;6.728;2023-07-13T08:03:42;20.30;99.90
19085;DHT22;9675;51.538;6.728;2023-07-13T08:06:09;20.30;99.90
19085;DHT22;9675;51.538;6.728;2023-07-13T08:08:36;20.40;99.90
19085;DHT22;9675;51.538;6.728;2023-07-13T08:11:03;20.40;99.90
19085;DHT22;9675;51.538;6.728;2023-07-13T08:13:31;20.40;99.90
19085;DHT22;9675;51.538;6.728;2023-07-13T08:15:59;20.50;99.90
19085;DHT22;9675;51.538;6.728;2023-07-13T08:18:27;20.60;99.90
19085;DHT22;9675;51.538;6.728;2023-07-13T08:20:54;20.60;99.90
19085;DHT22;9675;51.538;6.728;2023-07-13T08:23:22;20.70;99.90
19085;DHT22;9675;51.538;6.728;2023-07-13T08:25:51;20.70;99.90
19085;DHT22;9675;51.538;6.728;2023-07-13T08:28:19;20.70;99.90
19085;DHT22;9675;51.538;6.728;2023-07-13T08:30:46;20.80;99.90
19085;DHT22;9675;51.538;6.728;2023-07-13T08:33:16;20.80;99.90
19085;DHT22;9675;51.538;6.728;2023-07-13T08:35:45;20.80;99.90
19085;DHT22;9675;51.538;6.728;2023-07-13T08:38:13;20.80;99.90
19085;DHT22;9675;51.538;6.728;2023-07-13T08:40:41;20.80;99.90
19085;DHT22;9675;51.538;6.728;2023-07-13T08:43:15;20.90;99.90
19085;DHT22;9675;51.538;6.728;2023-07-13T08:45:47;20.90;99.90
19085;DHT22;9675;51.538;6.728;2023-07-13T08:48:27;21.00;99.90
19085;DHT22;9675;51.538;6.728;2023-07-13T08:51:00;21.10;99.90
19085;DHT22;9675;51.538;6.728;2023-07-13T08:53:36;21.20;99.90
19085;DHT22;9675;51.538;6.728;2023-07-13T08:56:18;21.20;99.90
19085;DHT22;9675;51.538;6.728;2023-07-13T08:58:55;21.30;99.90
19085;DHT22;9675;51.538;6.728;2023-07-13T09:01:30;21.30;99.90
19085;DHT22;9675;51.538;6.728;2023-07-13T09:04:06;21.40;99.90
19085;DHT22;9675;51.538;6.728;2023-07-13T09:06:49;21.40;99.90
19085;DHT22;9675;51.538;6.728;2023-07-13T09:09:33;21.50;99.90
19085;DHT22;9675;51.538;6.728;2023-07-13T09:12:14;21.50;99.90
19085;DHT22;9675;51.538;6.728;2023-07-13T09:14:48;21.50;99.90
19085;DHT22;9675;51.538;6.728;2023-07-13T09:17:20;21.50;99.90
19085;DHT22;9675;51.538;6.728;2023-07-13T09:19:58;21.60;99.90
19085;DHT22;9675;51.538;6.728;2023-07-13T09:22:33;21.60;99.90
19085;DHT22;9675;51.538;6.728;2023-07-13T09:25:09;21.70;99.90
19085;DHT22;9675;51.538;6.728;2023-07-13T09:27:48;21.80;99.90
19085;DHT22;9675;51.538;6.728;2023-07-13T09:30:30;21.80;99.90
19085;DHT22;9675;51.538;6.728;2023-07-13T09:33:01;21.80;99.90
19085;DHT22;9675;51.538;6.728;2023-07-13T09:35:29;21.90;99.90
19085;DHT22;9675;51.538;6.728;2023-07-13T09:38:01;22.00;99.90
19085;DHT22;9675;51.538;6.728;2023-07-13T09:40:43;22.00;99.90
19085;DHT22;9675;51.538;6.728;2023-07-13T09:43:21;22.10;99.90
19085;DHT22;9675;51.538;6.728;2023-07-13T09:45:48;22.20;99.90
19085;DHT22;9675;51.538;6.728;2023-07-13T09:48:18;22.20;99.90
19085;DHT22;9675;51.538;6.728;2023-07-13T09:50:47;22.30;99.90
19085;DHT22;9675;51.538;6.728;2023-07-13T09:53:18;22.30;99.90
19085;DHT22;9675;51.538;6.728;2023-07-13T09:55:47;22.40;99.90
19085;DHT22;9675;51.538;6.728;2023-07-13T09:58:17;22.50;99.90
19085;DHT22;9675;51.538;6.728;2023-07-13T10:00:55;22.50;99.90
19085;DHT22;9675;51.538;6.728;2023-07-13T10:03:27;22.60;99.90
19085;DHT22;9675;51.538;6.728;2023-07-13T10:06:10;22.70;99.90
19085;DHT22;9675;51.538;6.728;2023-07-13T10:08:39;22.80;99.90
19085;DHT22;9675;51.538;6.728;2023-07-13T10:11:10;22.90;99.90
19085;DHT22;9675;51.538;6.728;2023-07-13T10:13:42;23.00;99.90
19085;DHT22;9675;51.538;6.728;2023-07-13T10:16:12;23.10;99.90
19085;DHT22;9675;51.538;6.728;2023-07-13T10:18:44;23.20;99.90
19085;DHT22;9675;51.538;6.728;2023-07-13T10:21:17;23.30;99.90
19085;DHT22;9675;51.538;6.728;2023-07-13T10:23:50;23.30;99.90
19085;DHT22;9675;51.538;6.728;2023-07-13T10:26:24;23.40;99.90
19085;DHT22;9675;51.538;6.728;2023-07-13T10:28:56;23.50;99.90
19085;DHT22;9675;51.538;6.728;2023-07-13T10:31:27;23.60;99.90
19085;DHT22;9675;51.538;6.728;2023-07-13T10:33:54;23.60;99.90
19085;DHT22;9675;51.538;6.728;2023-07-13T10:36:30;23.70;99.90
19085;DHT22;9675;51.538;6.728;2023-07-13T10:39:03;23.80;99.90
19085;DHT22;9675;51.538;6.728;2023-07-13T10:41:38;23.80;99.90
19085;DHT22;9675;51.538;6.728;2023-07-13T10:44:15;23.90;99.90
19085;DHT22;9675;51.538;6.728;2023-07-13T10:46:52;24.00;99.90
19085;DHT22;9675;51.538;6.728;2023-07-13T10:49:22;24.10;99.90
19085;DHT22;9675;51.538;6.728;2023-07-13T10:51:52;24.10;99.90
19085;DHT22;9675;51.538;6.728;2023-07-13T10:54:21;24.20;99.90
19085;DHT22;9675;51.538;6.728;2023-07-13T10:57:15;24.20;99.90
19085;DHT22;9675;51.538;6.728;2023-07-13T10:59:47;24.30;99.90
19085;DHT22;9675;51.538;6.728;2023-07-13T11:02:37;24.50;99.90
19085;DHT22;9675;51.538;6.728;2023-07-13T11:05:17;24.50;99.90
19085;DHT22;9675;51.538;6.728;2023-07-13T11:07:56;24.60;99.90
19085;DHT22;9675;51.538;6.728;2023-07-13T11:10:54;24.70;99.90
19085;DHT22;9675;51.538;6.728;2023-07-13T11:13:55;24.70;99.90
19085;DHT22;9675;51.538;6.728;2023-07-13T11:16:36;24.80;99.90
19085;DHT22;9675;51.538;6.728;2023-07-13T11:19:39;24.90;99.90
19085;DHT22;9675;51.538;6.728;2023-07-13T11:22:41;25.00;99.90
19085;DHT22;9675;51.538;6.728;2023-07-13T11:25:26;25.10;99.90
19085;DHT22;9675;51.538;6.728;2023-07-13T11:28:14;25.30;99.90
19085;DHT22;9675;51.538;6.728;2023-07-13T11:30:47;25.40;99.90
19085;DHT22;9675;51.538;6.728;2023-07-13T11:33:21;25.50;99.90
19085;DHT22;9675;51.538;6.728;2023-07-13T11:35:58;25.50;99.90
19085;DHT22;9675;51.538;6.728;2023-07-13T11:38:32;25.50;99.90
19085;DHT22;9675;51.538;6.728;2023-07-13T11:41:05;25.60;99.90
19085;DHT22;9675;51.538;6.728;2023-07-13T11:43:40;25.70;99.90
19085;DHT22;9675;51.538;6.728;2023-07-13T11:46:15;25.70;99.90
19085;DHT22;9675;51.538;6.728;2023-07-13T11:48:46;25.70;99.90
19085;DHT22;9675;51.538;6.728;2023-07-13T11:51:20;25.80;99.90
19085;DHT22;9675;51.538;6.728;2023-07-13T11:53:50;25.90;99.90
19085;DHT22;9675;51.538;6.728;2023-07-13T11:56:20;25.90;99.90
19085;DHT22;9675;51.538;6.728;2023-07-13T11:58:49;25.90;99.90
19085;DHT22;9675;51.538;6.728;2023-07-13T12:01:21;26.00;99.90
19085;DHT22;9675;51.538;6.728;2023-07-13T12:03:52;26.10;99.90
19085;DHT22;9675;51.538;6.728;2023-07-13T12:06:26;26.10;99.90
19085;DHT22;9675;51.538;6.728;2023-07-13T12:08:56;26.10;99.90
19085;DHT22;9675;51.538;6.728;2023-07-13T12:11:24;26.20;99.90
19085;DHT22;9675;51.538;6.728;2023-07-13T12:13:52;26.20;99.90
19085;DHT22;9675;51.538;6.728;2023-07-13T12:16:26;26.20;99.90
19085;DHT22;9675;51.538;6.728;2023-07-13T12:18:56;26.30;99.90
19085;DHT22;9675;51.538;6.728;2023-07-13T12:21:30;26.30;99.90
19085;DHT22;9675;51.538;6.728;2023-07-13T12:24:00;26.30;99.90
19085;DHT22;9675;51.538;6.728;2023-07-13T12:26:30;26.40;99.90
19085;DHT22;9675;51.538;6.728;2023-07-13T12:29:00;26.50;99.90
19085;DHT22;9675;51.538;6.728;2023-07-13T12:31:34;26.60;99.90
19085;DHT22;9675;51.538;6.728;2023-07-13T12:34:07;26.60;99.90
19085;DHT22;9675;51.538;6.728;2023-07-13T12:36:42;26.60;99.90
19085;DHT22;9675;51.538;6.728;2023-07-13T12:39:16;26.70;99.90
19085;DHT22;9675;51.538;6.728;2023-07-13T12:41:46;26.70;99.90
19085;DHT22;9675;51.538;6.728;2023-07-13T12:44:16;26.70;99.90
19085;DHT22;9675;51.538;6.728;2023-07-13T12:46:54;26.70;99.90
19085;DHT22;9675;51.538;6.728;2023-07-13T12:49:27;26.70;99.90
19085;DHT22;9675;51.538;6.728;2023-07-13T12:52:01;26.70;99.90
19085;DHT22;9675;51.538;6.728;2023-07-13T12:54:32;26.70;99.90
19085;DHT22;9675;51.538;6.728;2023-07-13T12:57:00;26.60;99.90
19085;DHT22;9675;51.538;6.728;2023-07-13T12:59:31;26.50;99.90
19085;DHT22;9675;51.538;6.728;2023-07-13T13:02:08;26.50;99.90
19085;DHT22;9675;51.538;6.728;2023-07-13T13:04:55;26.40;99.90
19085;DHT22;9675;51.538;6.728;2023-07-13T13:07:24;26.30;99.90
19085;DHT22;9675;51.538;6.728;2023-07-13T13:09:52;26.30;99.90
19085;DHT22;9675;51.538;6.728;2023-07-13T13:12:20;26.30;99.90
19085;DHT22;9675;51.538;6.728;2023-07-13T13:14:49;26.40;99.90
19085;DHT22;9675;51.538;6.728;2023-07-13T13:17:21;26.30;99.90
19085;DHT22;9675;51.538;6.728;2023-07-13T13:19:50;26.30;99.90
19085;DHT22;9675;51.538;6.728;2023-07-13T13:22:19;26.30;99.90
19085;DHT22;9675;51.538;6.728;2023-07-13T13:24:48;26.20;99.90
19085;DHT22;9675;51.538;6.728;2023-07-13T13:27:17;26.20;99.90
19085;DHT22;9675;51.538;6.728;2023-07-13T13:29:46;26.20;99.90
19085;DHT22;9675;51.538;6.728;2023-07-13T13:32:17;26.20;99.90
19085;DHT22;9675;51.538;6.728;2023-07-13T13:34:45;26.30;99.90
19085;DHT22;9675;51.538;6.728;2023-07-13T13:37:20;26.20;99.90
19085;DHT22;9675;51.538;6.728;2023-07-13T13:39:52;26.20;99.90
19085;DHT22;9675;51.538;6.728;2023-07-13T13:42:21;26.20;99.90
19085;DHT22;9675;51.538;6.728;2023-07-13T13:44:50;26.30;99.90
19085;DHT22;9675;51.538;6.728;2023-07-13T13:47:28;26.20;99.90
19085;DHT22;9675;51.538;6.728;2023-07-13T13:49:57;26.20;99.90
19085;DHT22;9675;51.538;6.728;2023-07-13T13:52:24;26.20;99.90
19085;DHT22;9675;51.538;6.728;2023-07-13T13:54:53;26.10;99.90
19085;DHT22;9675;51.538;6.728;2023-07-13T13:57:22;26.10;99.90
19085;DHT22;9675;51.538;6.728;2023-07-13T13:59:50;26.10;99.90
19085;DHT22;9675;51.538;6.728;2023-07-13T14:02:23;26.10;99.90
19085;DHT22;9675;51.538;6.728;2023-07-13T14:04:55;26.00;99.90
19085;DHT22;9675;51.538;6.728;2023-07-13T14:07:25;26.00;99.90
19085;DHT22;9675;51.538;6.728;2023-07-13T14:09:56;26.00;99.90
19085;DHT22;9675;51.538;6.728;2023-07-13T14:12:24;25.90;99.90
19085;DHT22;9675;51.538;6.728;2023-07-13T14:14:54;25.90;99.90
19085;DHT22;9675;51.538;6.728;2023-07-13T14:17:24;25.90;99.90
19085;DHT22;9675;51.538;6.728;2023-07-13T14:19:53;25.80;99.90
19085;DHT22;9675;51.538;6.728;2023-07-13T14:22:23;25.80;99.90
19085;DHT22;9675;51.538;6.728;2023-07-13T14:24:53;25.80;99.90
19085;DHT22;9675;51.538;6.728;2023-07-13T14:27:23;25.80;99.90
19085;DHT22;9675;51.538;6.728;2023-07-13T14:29:51;25.90;99.90
19085;DHT22;9675;51.538;6.728;2023-07-13T14:32:18;25.90;99.90
19085;DHT22;9675;51.538;6.728;2023-07-13T14:34:45;25.90;99.90
19085;DHT22;9675;51.538;6.728;2023-07-13T14:37:13;25.90;99.90
19085;DHT22;9675;51.538;6.728;2023-07-13T14:39:44;26.00;99.90
19085;DHT22;9675;51.538;6.728;2023-07-13T14:42:14;26.00;99.90
19085;DHT22;9675;51.538;6.728;2023-07-13T14:44:41;26.00;99.90
19085;DHT22;9675;51.538;6.728;2023-07-13T14:47:09;26.00;99.90
19085;DHT22;9675;51.538;6.728;2023-07-13T14:49:38;26.00;99.90
19085;DHT22;9675;51.538;6.728;2023-07-13T14:52:12;26.00;99.90
19085;DHT22;9675;51.538;6.728;2023-07-13T14:54:44;26.00;99.90
19085;DHT22;9675;51.538;6.728;2023-07-13T14:57:12;26.00;99.90
19085;DHT22;9675;51.538;6.728;2023-07-13T14:59:42;26.00;99.90
19085;DHT22;9675;51.538;6.728;2023-07-13T15:02:16;26.00;99.90
19085;DHT22;9675;51.538;6.728;2023-07-13T15:04:44;26.10;99.90
19085;DHT22;9675;51.538;6.728;2023-07-13T15:07:11;26.00;99.90
19085;DHT22;9675;51.538;6.728;2023-07-13T15:09:41;26.00;99.90
19085;DHT22;9675;51.538;6.728;2023-07-13T15:12:08;26.00;99.90
19085;DHT22;9675;51.538;6.728;2023-07-13T15:14:37;25.90;99.90
19085;DHT22;9675;51.538;6.728;2023-07-13T15:17:08;26.00;99.90
19085;DHT22;9675;51.538;6.728;2023-07-13T15:19:49;25.90;99.90
19085;DHT22;9675;51.538;6.728;2023-07-13T15:22:16;25.90;99.90
19085;DHT22;9675;51.538;6.728;2023-07-13T15:24:43;25.90;99.90
19085;DHT22;9675;51.538;6.728;2023-07-13T15:27:11;25.80;99.90
19085;DHT22;9675;51.538;6.728;2023-07-13T15:29:41;25.80;99.90
19085;DHT22;9675;51.538;6.728;2023-07-13T15:32:12;25.80;99.90
19085;DHT22;9675;51.538;6.728;2023-07-13T15:34:40;25.80;99.90
19085;DHT22;9675;51.538;6.728;2023-07-13T15:37:12;25.80;99.90
19085;DHT22;9675;51.538;6.728;2023-07-13T15:39:41;25.70;99.90
19085;DHT22;9675;51.538;6.728;2023-07-13T15:42:13;25.70;99.90
19085;DHT22;9675;51.538;6.728;2023-07-13T15:44:44;25.70;99.90
19085;DHT22;9675;51.538;6.728;2023-07-13T15:47:12;25.70;99.90
19085;DHT22;9675;51.538;6.728;2023-07-13T15:49:41;25.70;99.90
19085;DHT22;9675;51.538;6.728;2023-07-13T15:52:16;25.70;99.90
19085;DHT22;9675;51.538;6.728;2023-07-13T15:54:45;25.60;99.90
19085;DHT22;9675;51.538;6.728;2023-07-13T15:57:13;25.60;99.90
19085;DHT22;9675;51.538;6.728;2023-07-13T15:59:40;25.60;99.90
19085;DHT22;9675;51.538;6.728;2023-07-13T16:02:15;25.60;99.90
19085;DHT22;9675;51.538;6.728;2023-07-13T16:04:44;25.60;99.90
19085;DHT22;9675;51.538;6.728;2023-07-13T16:07:13;25.60;99.90
19085;DHT22;9675;51.538;6.728;2023-07-13T16:09:44;25.50;99.90
19085;DHT22;9675;51.538;6.728;2023-07-13T16:12:13;25.50;99.90